sensor_id;sensor_type;location;lat;lon;timestamp;pressure;altitude;pressure_sealevel;temperature;humidity
12951;BME280;6540;50.858;7.232;2023-02-24T00:00:21;51802.09;;;-142.34;28.73
12951;BME280;6540;50.858;7.232;2023-02-24T00:02:55;51818.22;;;-142.34;28.63
12951;BME280;6540;50.858;7.232;2023-02-24T00:05:20;51818.22;;;-142.34;28.85
12951;BME280;6540;50.858;7.232;2023-02-24T00:07:48;51812.19;;;-142.34;28.80
12951;BME280;6540;50.858;7.232;2023-02-24T00:10:13;51818.22;;;-142.34;28.44
12951;BME280;6540;50.858;7.232;2023-02-24T00:12:44;51765.78;;;-142.34;28.94
12951;BME280;6540;50.858;7.232;2023-02-24T00:15:12;51816.22;;;-142.34;29.17
12951;BME280;6540;50.858;7.232;2023-02-24T00:17:39;51846.47;;;-142.34;28.42
12951;BME280;6540;50.858;7.232;2023-02-24T00:20:04;51810.16;;;-142.34;28.71
12951;BME280;6540;50.858;7.232;2023-02-24T00:22:31;51790.00;;;-142.34;28.94
12951;BME280;6540;50.858;7.232;2023-02-24T00:24:57;51822.25;;;-142.34;28.81
12951;BME280;6540;50.858;7.232;2023-02-24T00:27:26;51826.31;;;-142.34;28.83
12951;BME280;6540;50.858;7.232;2023-02-24T00:29:52;51826.31;;;-142.34;28.63
12951;BME280;6540;50.858;7.232;2023-02-24T00:32:17;51806.13;;;-142.34;28.63
12951;BME280;6540;50.858;7.232;2023-02-24T00:34:43;51790.00;;;-142.34;28.61
12951;BME280;6540;50.858;7.232;2023-02-24T00:37:08;51818.22;;;-142.34;28.76
12951;BME280;6540;50.858;7.232;2023-02-24T00:39:34;51790.00;;;-142.34;28.69
12951;BME280;6540;50.858;7.232;2023-02-24T00:42:02;51777.88;;;-142.34;28.53
12951;BME280;6540;50.858;7.232;2023-02-24T00:44:32;51826.31;;;-142.34;29.09
12951;BME280;6540;50.858;7.232;2023-02-24T00:46:58;51822.25;;;-142.34;28.91
12951;BME280;6540;50.858;7.232;2023-02-24T00:49:25;51830.34;;;-142.34;29.16
12951;BME280;6540;50.858;7.232;2023-02-24T00:51:51;51848.50;;;-142.34;29.04
12951;BME280;6540;50.858;7.232;2023-02-24T00:54:18;51810.16;;;-142.34;29.01
12951;BME280;6540;50.858;7.232;2023-02-24T00:56:46;51846.47;;;-142.34;29.75
12951;BME280;6540;50.858;7.232;2023-02-24T00:59:14;51854.53;;;-142.34;29.11
12951;BME280;6540;50.858;7.232;2023-02-24T01:01:40;51806.13;;;-142.34;29.03
12951;BME280;6540;50.858;7.232;2023-02-24T01:04:07;51800.06;;;-142.34;29.65
12951;BME280;6540;50.858;7.232;2023-02-24T01:06:38;51830.34;;;-142.34;31.33
12951;BME280;6540;50.858;7.232;2023-02-24T01:09:06;51836.38;;;-142.34;29.77
12951;BME280;6540;50.858;7.232;2023-02-24T01:11:37;51830.34;;;-142.34;29.10
12951;BME280;6540;50.858;7.232;2023-02-24T01:14:23;51802.09;;;-142.34;29.22
12951;BME280;6540;50.858;7.232;2023-02-24T01:16:49;51826.31;;;-142.34;29.12
12951;BME280;6540;50.858;7.232;2023-02-24T01:19:19;51838.41;;;-142.34;29.82
12951;BME280;6540;50.858;7.232;2023-02-24T01:21:45;51840.41;;;-142.34;29.82
12951;BME280;6540;50.858;7.232;2023-02-24T01:24:12;51854.53;;;-142.34;29.77
12951;BME280;6540;50.858;7.232;2023-02-24T01:26:40;51874.72;;;-142.34;31.02
12951;BME280;6540;50.858;7.232;2023-02-24T01:29:05;51862.63;;;-142.34;29.19
12951;BME280;6540;50.858;7.232;2023-02-24T01:31:37;51854.53;;;-142.34;29.07
12951;BME280;6540;50.858;7.232;2023-02-24T01:34:04;51856.56;;;-142.34;28.99
12951;BME280;6540;50.858;7.232;2023-02-24T01:36:31;51830.34;;;-142.34;29.37
12951;BME280;6540;50.858;7.232;2023-02-24T01:38:58;51826.31;;;-142.34;31.50
12951;BME280;6540;50.858;7.232;2023-02-24T01:41:24;51850.50;;;-142.34;31.75
12951;BME280;6540;50.858;7.232;2023-02-24T01:46:38;51828.31;;;-142.34;29.24
12951;BME280;6540;50.858;7.232;2023-02-24T01:49:27;51856.56;;;-142.34;30.53
12951;BME280;6540;50.858;7.232;2023-02-24T01:51:57;51826.31;;;-142.34;30.15
12951;BME280;6540;50.858;7.232;2023-02-24T01:54:29;51830.34;;;-142.34;29.05
12951;BME280;6540;50.858;7.232;2023-02-24T01:56:56;51846.47;;;-142.34;29.39
12951;BME280;6540;50.858;7.232;2023-02-24T01:59:27;51844.47;;;-142.34;28.88
12951;BME280;6540;50.858;7.232;2023-02-24T02:01:56;51842.44;;;-142.34;30.06
12951;BME280;6540;50.858;7.232;2023-02-24T02:04:32;51854.53;;;-142.34;29.34
12951;BME280;6540;50.858;7.232;2023-02-24T02:06:58;51858.56;;;-142.34;30.53
12951;BME280;6540;50.858;7.232;2023-02-24T02:09:25;51866.66;;;-142.34;31.56
12951;BME280;6540;50.858;7.232;2023-02-24T02:11:50;51872.69;;;-142.34;30.01
12951;BME280;6540;50.858;7.232;2023-02-24T02:14:17;51854.53;;;-142.34;28.97
12951;BME280;6540;50.858;7.232;2023-02-24T02:25:07;51862.63;;;-142.34;31.11
12951;BME280;6540;50.858;7.232;2023-02-24T02:33:24;51838.41;;;-142.34;32.45
12951;BME280;6540;50.858;7.232;2023-02-24T02:36:17;51858.56;;;-142.34;31.45
12951;BME280;6540;50.858;7.232;2023-02-24T02:41:55;51858.56;;;-142.34;30.09
12951;BME280;6540;50.858;7.232;2023-02-24T02:44:38;51864.63;;;-142.34;31.09
12951;BME280;6540;50.858;7.232;2023-02-24T02:47:22;51840.41;;;-142.34;30.43
12951;BME280;6540;50.858;7.232;2023-02-24T02:49:54;51886.81;;;-142.34;29.64
12951;BME280;6540;50.858;7.232;2023-02-24T02:52:32;51870.69;;;-142.34;30.38
12951;BME280;6540;50.858;7.232;2023-02-24T02:55:10;51854.53;;;-142.34;29.12
12951;BME280;6540;50.858;7.232;2023-02-24T02:57:43;51856.56;;;-142.34;29.01
12951;BME280;6540;50.858;7.232;2023-02-24T03:02:50;51870.69;;;-142.34;28.78
12951;BME280;6540;50.858;7.232;2023-02-24T03:05:18;51852.53;;;-142.34;30.16
12951;BME280;6540;50.858;7.232;2023-02-24T03:07:50;51878.75;;;-142.34;29.17
12951;BME280;6540;50.858;7.232;2023-02-24T03:10:25;51834.38;;;-142.34;28.96
12951;BME280;6540;50.858;7.232;2023-02-24T03:12:53;51826.31;;;-142.34;29.20
12951;BME280;6540;50.858;7.232;2023-02-24T03:15:22;51846.47;;;-142.34;29.16
12951;BME280;6540;50.858;7.232;2023-02-24T03:17:55;51838.41;;;-142.34;28.89
12951;BME280;6540;50.858;7.232;2023-02-24T03:20:29;51854.53;;;-142.34;29.13
12951;BME280;6540;50.858;7.232;2023-02-24T03:23:02;51832.34;;;-142.34;28.78
12951;BME280;6540;50.858;7.232;2023-02-24T03:25:36;51844.47;;;-142.34;28.89
12951;BME280;6540;50.858;7.232;2023-02-24T03:28:13;51824.28;;;-142.34;29.19
12951;BME280;6540;50.858;7.232;2023-02-24T03:30:43;51838.41;;;-142.34;29.56
12951;BME280;6540;50.858;7.232;2023-02-24T03:36:09;51846.47;;;-142.34;29.81
12951;BME280;6540;50.858;7.232;2023-02-24T03:38:40;51850.50;;;-142.34;30.14
12951;BME280;6540;50.858;7.232;2023-02-24T03:41:08;51842.44;;;-142.34;29.45
12951;BME280;6540;50.858;7.232;2023-02-24T03:43:38;51844.47;;;-142.34;29.00
12951;BME280;6540;50.858;7.232;2023-02-24T03:46:05;51894.88;;;-142.34;30.19
12951;BME280;6540;50.858;7.232;2023-02-24T03:48:31;51874.72;;;-142.34;29.48
12951;BME280;6540;50.858;7.232;2023-02-24T03:51:01;51866.66;;;-142.34;28.68
12951;BME280;6540;50.858;7.232;2023-02-24T03:53:59;51856.56;;;-142.34;28.18
12951;BME280;6540;50.858;7.232;2023-02-24T03:56:48;51866.66;;;-142.34;28.58
12951;BME280;6540;50.858;7.232;2023-02-24T04:02:20;51854.53;;;-142.34;28.32
12951;BME280;6540;50.858;7.232;2023-02-24T04:05:11;51856.56;;;-142.34;27.83
12951;BME280;6540;50.858;7.232;2023-02-24T04:07:43;51866.66;;;-142.34;29.26
12951;BME280;6540;50.858;7.232;2023-02-24T04:10:55;51846.47;;;-142.34;29.70
12951;BME280;6540;50.858;7.232;2023-02-24T04:13:42;51856.56;;;-142.34;28.71
12951;BME280;6540;50.858;7.232;2023-02-24T04:16:43;51830.34;;;-142.34;30.60
12951;BME280;6540;50.858;7.232;2023-02-24T04:19:16;51862.63;;;-142.34;29.51
12951;BME280;6540;50.858;7.232;2023-02-24T04:21:44;51884.81;;;-142.34;30.09
12951;BME280;6540;50.858;7.232;2023-02-24T04:24:13;51858.56;;;-142.34;28.34
12951;BME280;6540;50.858;7.232;2023-02-24T04:26:43;51902.97;;;-142.34;28.26
12951;BME280;6540;50.858;7.232;2023-02-24T04:29:11;51896.91;;;-142.34;29.37
12951;BME280;6540;50.858;7.232;2023-02-24T04:31:46;51876.72;;;-142.34;29.72
12951;BME280;6540;50.858;7.232;2023-02-24T04:34:14;51892.88;;;-142.34;29.23
12951;BME280;6540;50.858;7.232;2023-02-24T04:36:47;51878.75;;;-142.34;28.89
12951;BME280;6540;50.858;7.232;2023-02-24T04:39:22;51872.69;;;-142.34;28.49
12951;BME280;6540;50.858;7.232;2023-02-24T04:41:48;51852.53;;;-142.34;28.41
12951;BME280;6540;50.858;7.232;2023-02-24T04:44:19;51850.50;;;-142.34;28.15
12951;BME280;6540;50.858;7.232;2023-02-24T04:46:46;51838.41;;;-142.34;28.43
12951;BME280;6540;50.858;7.232;2023-02-24T04:49:12;51846.47;;;-142.34;28.14
12951;BME280;6540;50.858;7.232;2023-02-24T04:51:38;51882.78;;;-142.34;28.00
12951;BME280;6540;50.858;7.232;2023-02-24T04:54:11;51856.56;;;-142.34;28.36
12951;BME280;6540;50.858;7.232;2023-02-24T04:56:40;51842.44;;;-142.34;28.11
12951;BME280;6540;50.858;7.232;2023-02-24T04:59:06;51870.69;;;-142.34;28.64
12951;BME280;6540;50.858;7.232;2023-02-24T05:01:31;51862.63;;;-142.34;28.15
12951;BME280;6540;50.858;7.232;2023-02-24T05:03:57;51854.53;;;-142.34;28.73
12951;BME280;6540;50.858;7.232;2023-02-24T05:06:24;51846.47;;;-142.34;30.53
12951;BME280;6540;50.858;7.232;2023-02-24T05:08:49;51854.53;;;-142.34;29.54
12951;BME280;6540;50.858;7.232;2023-02-24T05:11:16;51870.69;;;-142.34;30.22
12951;BME280;6540;50.858;7.232;2023-02-24T05:13:43;51876.72;;;-142.34;29.11
12951;BME280;6540;50.858;7.232;2023-02-24T05:16:14;51886.81;;;-142.34;28.85
12951;BME280;6540;50.858;7.232;2023-02-24T05:18:40;51856.56;;;-142.34;27.92
12951;BME280;6540;50.858;7.232;2023-02-24T05:21:16;51870.69;;;-142.34;27.98
12951;BME280;6540;50.858;7.232;2023-02-24T05:24:00;51898.94;;;-142.34;28.85
12951;BME280;6540;50.858;7.232;2023-02-24T05:26:32;51862.63;;;-142.34;29.73
12951;BME280;6540;50.858;7.232;2023-02-24T05:29:00;51874.72;;;-142.34;29.17
12951;BME280;6540;50.858;7.232;2023-02-24T05:31:28;51856.56;;;-142.34;29.06
12951;BME280;6540;50.858;7.232;2023-02-24T05:33:58;51862.63;;;-142.34;30.25
12951;BME280;6540;50.858;7.232;2023-02-24T05:36:26;51884.81;;;-142.34;30.09
12951;BME280;6540;50.858;7.232;2023-02-24T05:38:53;51854.53;;;-142.34;29.61
12951;BME280;6540;50.858;7.232;2023-02-24T05:41:39;51878.75;;;-142.34;28.73
12951;BME280;6540;50.858;7.232;2023-02-24T05:44:11;51890.84;;;-142.34;28.02
12951;BME280;6540;50.858;7.232;2023-02-24T05:46:40;51894.88;;;-142.34;27.52
12951;BME280;6540;50.858;7.232;2023-02-24T05:49:11;51904.97;;;-142.34;29.22
12951;BME280;6540;50.858;7.232;2023-02-24T05:51:39;51864.63;;;-142.34;28.00
12951;BME280;6540;50.858;7.232;2023-02-24T05:54:09;51866.66;;;-142.34;27.83
12951;BME280;6540;50.858;7.232;2023-02-24T05:56:37;51854.53;;;-142.34;27.97
12951;BME280;6540;50.858;7.232;2023-02-24T05:59:04;51880.78;;;-142.34;28.15
12951;BME280;6540;50.858;7.232;2023-02-24T06:01:34;51870.69;;;-142.34;28.12
12951;BME280;6540;50.858;7.232;2023-02-24T06:04:03;51870.69;;;-142.34;28.23
12951;BME280;6540;50.858;7.232;2023-02-24T06:06:37;51854.53;;;-142.34;27.35
12951;BME280;6540;50.858;7.232;2023-02-24T06:09:10;51878.75;;;-142.34;27.51
12951;BME280;6540;50.858;7.232;2023-02-24T06:11:41;51846.47;;;-142.34;27.69
12951;BME280;6540;50.858;7.232;2023-02-24T06:14:08;51854.53;;;-142.34;27.73
12951;BME280;6540;50.858;7.232;2023-02-24T06:16:38;51868.66;;;-142.34;28.12
12951;BME280;6540;50.858;7.232;2023-02-24T06:19:04;51842.44;;;-142.34;28.27
12951;BME280;6540;50.858;7.232;2023-02-24T06:21:33;51870.69;;;-142.34;27.56
12951;BME280;6540;50.858;7.232;2023-02-24T06:23:59;51848.50;;;-142.34;27.58
12951;BME280;6540;50.858;7.232;2023-02-24T06:26:25;51884.81;;;-142.34;27.65
12951;BME280;6540;50.858;7.232;2023-02-24T06:28:55;51882.78;;;-142.34;27.49
12951;BME280;6540;50.858;7.232;2023-02-24T06:31:21;51874.72;;;-142.34;28.16
12951;BME280;6540;50.858;7.232;2023-02-24T06:33:46;51858.56;;;-142.34;27.50
12951;BME280;6540;50.858;7.232;2023-02-24T06:36:12;51886.81;;;-142.34;27.73
12951;BME280;6540;50.858;7.232;2023-02-24T06:38:41;51874.72;;;-142.34;27.68
12951;BME280;6540;50.858;7.232;2023-02-24T06:41:07;51874.72;;;-142.34;27.52
12951;BME280;6540;50.858;7.232;2023-02-24T06:43:39;51868.66;;;-142.34;27.38
12951;BME280;6540;50.858;7.232;2023-02-24T06:46:06;51832.34;;;-142.34;27.07
12951;BME280;6540;50.858;7.232;2023-02-24T06:48:32;51842.44;;;-142.34;27.11
12951;BME280;6540;50.858;7.232;2023-02-24T06:51:10;51844.47;;;-142.34;27.37
12951;BME280;6540;50.858;7.232;2023-02-24T06:53:38;51878.75;;;-142.34;27.26
12951;BME280;6540;50.858;7.232;2023-02-24T06:56:08;51826.31;;;-142.34;27.78
12951;BME280;6540;50.858;7.232;2023-02-24T06:58:49;51878.75;;;-142.34;27.42
12951;BME280;6540;50.858;7.232;2023-02-24T07:01:17;51836.38;;;-142.34;26.92
12951;BME280;6540;50.858;7.232;2023-02-24T07:03:44;51826.31;;;-142.34;26.97
12951;BME280;6540;50.858;7.232;2023-02-24T07:06:32;51838.41;;;-142.34;28.22
12951;BME280;6540;50.858;7.232;2023-02-24T07:09:00;51844.47;;;-142.34;27.54
12951;BME280;6540;50.858;7.232;2023-02-24T07:11:29;51846.47;;;-142.34;27.32
12951;BME280;6540;50.858;7.232;2023-02-24T07:13:55;51850.50;;;-142.34;27.29
12951;BME280;6540;50.858;7.232;2023-02-24T07:16:22;51878.75;;;-142.34;27.45
12951;BME280;6540;50.858;7.232;2023-02-24T07:19:00;51872.69;;;-142.34;26.85
12951;BME280;6540;50.858;7.232;2023-02-24T07:21:30;51850.50;;;-142.34;26.91
12951;BME280;6540;50.858;7.232;2023-02-24T07:24:04;51818.22;;;-142.34;27.42
12951;BME280;6540;50.858;7.232;2023-02-24T07:26:30;51872.69;;;-142.34;26.74
12951;BME280;6540;50.858;7.232;2023-02-24T07:28:55;51872.69;;;-142.34;26.75
12951;BME280;6540;50.858;7.232;2023-02-24T07:31:22;51858.56;;;-142.34;27.19
12951;BME280;6540;50.858;7.232;2023-02-24T07:33:52;51856.56;;;-142.34;27.10
12951;BME280;6540;50.858;7.232;2023-02-24T07:36:18;51838.41;;;-142.34;27.19
12951;BME280;6540;50.858;7.232;2023-02-24T07:38:49;51850.50;;;-142.34;26.71
12951;BME280;6540;50.858;7.232;2023-02-24T07:41:16;51836.38;;;-142.34;26.86
12951;BME280;6540;50.858;7.232;2023-02-24T07:43:43;51852.53;;;-142.34;26.88
12951;BME280;6540;50.858;7.232;2023-02-24T07:46:12;51846.47;;;-142.34;27.07
12951;BME280;6540;50.858;7.232;2023-02-24T07:48:39;51854.53;;;-142.34;27.12
12951;BME280;6540;50.858;7.232;2023-02-24T07:51:17;51846.47;;;-142.34;26.29
12951;BME280;6540;50.858;7.232;2023-02-24T07:53:50;51842.44;;;-142.34;26.78
12951;BME280;6540;50.858;7.232;2023-02-24T07:56:18;51866.66;;;-142.34;27.01
12951;BME280;6540;50.858;7.232;2023-02-24T07:58:45;51854.53;;;-142.34;27.37
12951;BME280;6540;50.858;7.232;2023-02-24T08:01:12;51870.69;;;-142.34;27.61
12951;BME280;6540;50.858;7.232;2023-02-24T08:03:57;51828.31;;;-142.34;27.54
12951;BME280;6540;50.858;7.232;2023-02-24T08:06:30;51870.69;;;-142.34;27.55
12951;BME280;6540;50.858;7.232;2023-02-24T08:09:04;51884.81;;;-142.34;27.52
12951;BME280;6540;50.858;7.232;2023-02-24T08:11:53;51854.53;;;-142.34;27.59
12951;BME280;6540;50.858;7.232;2023-02-24T08:16:46;51858.56;;;-142.34;26.97
12951;BME280;6540;50.858;7.232;2023-02-24T08:19:15;51830.34;;;-142.34;27.34
12951;BME280;6540;50.858;7.232;2023-02-24T08:21:46;51866.66;;;-142.34;26.85
12951;BME280;6540;50.858;7.232;2023-02-24T08:24:16;51854.53;;;-142.34;26.73
12951;BME280;6540;50.858;7.232;2023-02-24T08:26:50;51834.38;;;-142.34;27.13
12951;BME280;6540;50.858;7.232;2023-02-24T08:29:34;51858.56;;;-142.34;28.71
12951;BME280;6540;50.858;7.232;2023-02-24T08:32:33;51826.31;;;-142.34;27.57
12951;BME280;6540;50.858;7.232;2023-02-24T08:35:03;51860.59;;;-142.34;28.16
12951;BME280;6540;50.858;7.232;2023-02-24T08:37:31;51876.72;;;-142.34;28.51
12951;BME280;6540;50.858;7.232;2023-02-24T08:40:09;51880.78;;;-142.34;28.27
12951;BME280;6540;50.858;7.232;2023-02-24T08:43:02;51850.50;;;-142.34;28.34
12951;BME280;6540;50.858;7.232;2023-02-24T08:46:25;51846.47;;;-142.34;28.61
12951;BME280;6540;50.858;7.232;2023-02-24T08:48:39;51892.88;;;-142.34;28.05
12951;BME280;6540;50.858;7.232;2023-02-24T08:51:13;51870.69;;;-142.34;27.19
12951;BME280;6540;50.858;7.232;2023-02-24T08:53:40;51907.00;;;-142.34;28.81
12951;BME280;6540;50.858;7.232;2023-02-24T08:56:09;51911.03;;;-142.34;28.62
12951;BME280;6540;50.858;7.232;2023-02-24T08:58:41;51902.97;;;-142.34;28.37
12951;BME280;6540;50.858;7.232;2023-02-24T09:01:16;51828.31;;;-142.34;28.76
12951;BME280;6540;50.858;7.232;2023-02-24T09:03:47;51872.69;;;-142.34;28.67
12951;BME280;6540;50.858;7.232;2023-02-24T09:06:16;51866.66;;;-142.34;29.28
12951;BME280;6540;50.858;7.232;2023-02-24T09:08:43;51884.81;;;-142.34;28.64
12951;BME280;6540;50.858;7.232;2023-02-24T09:11:12;51915.06;;;-142.34;28.51
12951;BME280;6540;50.858;7.232;2023-02-24T09:13:43;51872.69;;;-142.34;29.35
12951;BME280;6540;50.858;7.232;2023-02-24T09:16:20;51874.72;;;-142.34;29.46
12951;BME280;6540;50.858;7.232;2023-02-24T09:18:48;51890.84;;;-142.34;29.48
12951;BME280;6540;50.858;7.232;2023-02-24T09:21:34;51894.88;;;-142.34;29.63
12951;BME280;6540;50.858;7.232;2023-02-24T09:24:11;51900.94;;;-142.34;29.27
12951;BME280;6540;50.858;7.232;2023-02-24T09:26:37;51864.63;;;-142.34;29.97
12951;BME280;6540;50.858;7.232;2023-02-24T09:29:10;51866.66;;;-142.34;28.30
12951;BME280;6540;50.858;7.232;2023-02-24T09:31:56;51915.06;;;-142.34;27.54
12951;BME280;6540;50.858;7.232;2023-02-24T09:34:38;51878.75;;;-142.34;27.24
12951;BME280;6540;50.858;7.232;2023-02-24T09:37:13;51907.00;;;-142.34;27.32
12951;BME280;6540;50.858;7.232;2023-02-24T09:39:52;51884.81;;;-142.34;28.85
12951;BME280;6540;50.858;7.232;2023-02-24T09:42:25;51874.72;;;-142.34;28.38
12951;BME280;6540;50.858;7.232;2023-02-24T09:44:55;51892.88;;;-142.34;29.38
12951;BME280;6540;50.858;7.232;2023-02-24T09:47:26;51907.00;;;-142.34;27.72
12951;BME280;6540;50.858;7.232;2023-02-24T09:50:16;51866.66;;;-142.34;29.04
12951;BME280;6540;50.858;7.232;2023-02-24T09:52:50;51888.84;;;-142.34;28.69
12951;BME280;6540;50.858;7.232;2023-02-24T09:57:57;51902.97;;;-142.34;27.87
12951;BME280;6540;50.858;7.232;2023-02-24T10:06:34;51907.00;;;-142.34;29.37
12951;BME280;6540;50.858;7.232;2023-02-24T10:09:11;51886.81;;;-142.34;28.73
12951;BME280;6540;50.858;7.232;2023-02-24T10:11:44;51923.13;;;-142.34;28.53
12951;BME280;6540;50.858;7.232;2023-02-24T10:17:16;51894.88;;;-142.34;28.92
12951;BME280;6540;50.858;7.232;2023-02-24T10:19:50;51874.72;;;-142.34;28.53
12951;BME280;6540;50.858;7.232;2023-02-24T10:22:51;51890.84;;;-142.34;27.35
12951;BME280;6540;50.858;7.232;2023-02-24T10:25:26;51866.66;;;-142.34;28.00
12951;BME280;6540;50.858;7.232;2023-02-24T10:30:51;51898.94;;;-142.34;29.11
12951;BME280;6540;50.858;7.232;2023-02-24T10:33:36;51894.88;;;-142.34;29.72
12951;BME280;6540;50.858;7.232;2023-02-24T10:36:05;51874.72;;;-142.34;29.24
12951;BME280;6540;50.858;7.232;2023-02-24T10:38:34;51878.75;;;-142.34;29.15
12951;BME280;6540;50.858;7.232;2023-02-24T10:40:59;51911.03;;;-142.34;29.09
12951;BME280;6540;50.858;7.232;2023-02-24T10:43:31;51870.69;;;-142.34;29.24
12951;BME280;6540;50.858;7.232;2023-02-24T10:46:00;51927.16;;;-142.34;28.63
12951;BME280;6540;50.858;7.232;2023-02-24T10:48:52;51890.84;;;-142.34;29.02
12951;BME280;6540;50.858;7.232;2023-02-24T10:52:10;51888.84;;;-142.34;28.96
12951;BME280;6540;50.858;7.232;2023-02-24T10:54:13;51874.72;;;-142.34;27.57
12951;BME280;6540;50.858;7.232;2023-02-24T10:56:58;51896.91;;;-142.34;27.69
12951;BME280;6540;50.858;7.232;2023-02-24T10:59:53;51864.63;;;-142.34;28.48
12951;BME280;6540;50.858;7.232;2023-02-24T11:02:50;51858.56;;;-142.34;29.31
12951;BME280;6540;50.858;7.232;2023-02-24T11:05:43;51870.69;;;-142.34;28.75
12951;BME280;6540;50.858;7.232;2023-02-24T11:08:21;51894.88;;;-142.34;29.20
12951;BME280;6540;50.858;7.232;2023-02-24T11:11:30;51911.03;;;-142.34;27.54
12951;BME280;6540;50.858;7.232;2023-02-24T11:14:18;51907.00;;;-142.34;28.05
12951;BME280;6540;50.858;7.232;2023-02-24T11:17:02;51902.97;;;-142.34;28.35
12951;BME280;6540;50.858;7.232;2023-02-24T11:20:00;51929.19;;;-142.34;27.02
12951;BME280;6540;50.858;7.232;2023-02-24T11:22:37;51915.06;;;-142.34;27.27
12951;BME280;6540;50.858;7.232;2023-02-24T11:27:40;51886.81;;;-142.34;28.05
12951;BME280;6540;50.858;7.232;2023-02-24T11:30:34;51915.06;;;-142.34;26.90
12951;BME280;6540;50.858;7.232;2023-02-24T11:33:37;51931.19;;;-142.34;27.86
12951;BME280;6540;50.858;7.232;2023-02-24T11:36:01;51866.66;;;-142.34;28.26
12951;BME280;6540;50.858;7.232;2023-02-24T11:39:30;51915.06;;;-142.34;28.15
12951;BME280;6540;50.858;7.232;2023-02-24T11:41:33;51894.88;;;-142.34;27.72
12951;BME280;6540;50.858;7.232;2023-02-24T11:44:05;51902.97;;;-142.34;26.94
12951;BME280;6540;50.858;7.232;2023-02-24T11:46:38;51894.88;;;-142.34;27.15
12951;BME280;6540;50.858;7.232;2023-02-24T11:51:51;51915.06;;;-142.34;27.31
12951;BME280;6540;50.858;7.232;2023-02-24T11:54:18;51933.22;;;-142.34;26.32
12951;BME280;6540;50.858;7.232;2023-02-24T11:56:52;51890.84;;;-142.34;28.13
12951;BME280;6540;50.858;7.232;2023-02-24T11:59:21;51931.19;;;-142.34;29.27
12951;BME280;6540;50.858;7.232;2023-02-24T12:04:55;51935.25;;;-142.34;28.26
12951;BME280;6540;50.858;7.232;2023-02-24T12:07:26;51890.84;;;-142.34;30.12
12951;BME280;6540;50.858;7.232;2023-02-24T12:25:46;51890.84;;;-142.34;31.01
12951;BME280;6540;50.858;7.232;2023-02-24T12:34:13;51874.72;;;-142.34;31.52
12951;BME280;6540;50.858;7.232;2023-02-24T12:39:19;51927.16;;;-142.34;31.01
12951;BME280;6540;50.858;7.232;2023-02-24T12:44:30;51915.06;;;-142.34;30.77
12951;BME280;6540;50.858;7.232;2023-02-24T12:47:09;51927.16;;;-142.34;30.24
12951;BME280;6540;50.858;7.232;2023-02-24T12:52:53;51925.16;;;-142.34;31.57
12951;BME280;6540;50.858;7.232;2023-02-24T12:58:16;51917.06;;;-142.34;30.93
12951;BME280;6540;50.858;7.232;2023-02-24T13:06:14;51935.25;;;-142.34;31.45
12951;BME280;6540;50.858;7.232;2023-02-24T13:09:11;51909.00;;;-142.34;30.73
12951;BME280;6540;50.858;7.232;2023-02-24T13:11:51;51894.88;;;-142.34;30.89
12951;BME280;6540;50.858;7.232;2023-02-24T13:14:26;51927.16;;;-142.34;31.38
12951;BME280;6540;50.858;7.232;2023-02-24T13:19:38;51923.13;;;-142.34;30.46
12951;BME280;6540;50.858;7.232;2023-02-24T13:28:00;51927.16;;;-142.34;30.23
12951;BME280;6540;50.858;7.232;2023-02-24T13:30:33;51915.06;;;-142.34;31.55
12951;BME280;6540;50.858;7.232;2023-02-24T13:33:22;51911.03;;;-142.34;30.94
12951;BME280;6540;50.858;7.232;2023-02-24T13:36:12;51927.16;;;-142.34;30.63
12951;BME280;6540;50.858;7.232;2023-02-24T13:38:42;51904.97;;;-142.34;31.52
12951;BME280;6540;50.858;7.232;2023-02-24T13:44:00;51933.22;;;-142.34;31.99
12951;BME280;6540;50.858;7.232;2023-02-24T13:46:30;51915.06;;;-142.34;30.30
12951;BME280;6540;50.858;7.232;2023-02-24T13:49:12;51935.25;;;-142.34;32.46
12951;BME280;6540;50.858;7.232;2023-02-24T13:52:11;51886.81;;;-142.34;31.36
12951;BME280;6540;50.858;7.232;2023-02-24T13:55:06;51902.97;;;-142.34;31.62
12951;BME280;6540;50.858;7.232;2023-02-24T13:58:30;51929.19;;;-142.34;30.96
12951;BME280;6540;50.858;7.232;2023-02-24T14:00:47;51902.97;;;-142.34;32.56
12951;BME280;6540;50.858;7.232;2023-02-24T14:03:19;51915.06;;;-142.34;31.67
12951;BME280;6540;50.858;7.232;2023-02-24T14:05:46;51937.25;;;-142.34;31.23
12951;BME280;6540;50.858;7.232;2023-02-24T14:08:19;51939.28;;;-142.34;31.63
12951;BME280;6540;50.858;7.232;2023-02-24T14:10:50;51937.25;;;-142.34;31.94
12951;BME280;6540;50.858;7.232;2023-02-24T14:13:25;51925.16;;;-142.34;32.47
12951;BME280;6540;50.858;7.232;2023-02-24T14:15:54;51923.13;;;-142.34;32.50
12951;BME280;6540;50.858;7.232;2023-02-24T14:20:45;51947.34;;;-142.34;31.69
12951;BME280;6540;50.858;7.232;2023-02-24T14:25:44;51955.41;;;-142.34;32.06
12951;BME280;6540;50.858;7.232;2023-02-24T14:28:21;51907.00;;;-142.34;31.42
12951;BME280;6540;50.858;7.232;2023-02-24T14:30:53;51919.09;;;-142.34;32.14
12951;BME280;6540;50.858;7.232;2023-02-24T14:33:39;51935.25;;;-142.34;30.70
12951;BME280;6540;50.858;7.232;2023-02-24T14:36:32;51909.00;;;-142.34;31.71
12951;BME280;6540;50.858;7.232;2023-02-24T14:39:12;51937.25;;;-142.34;32.07
12951;BME280;6540;50.858;7.232;2023-02-24T14:41:38;51921.13;;;-142.34;31.89
12951;BME280;6540;50.858;7.232;2023-02-24T14:44:25;51943.31;;;-142.34;30.58
12951;BME280;6540;50.858;7.232;2023-02-24T14:46:56;51919.09;;;-142.34;30.61
12951;BME280;6540;50.858;7.232;2023-02-24T14:49:22;51943.31;;;-142.34;30.45
12951;BME280;6540;50.858;7.232;2023-02-24T14:51:52;51959.44;;;-142.34;30.74
12951;BME280;6540;50.858;7.232;2023-02-24T14:54:23;51909.00;;;-142.34;30.50
12951;BME280;6540;50.858;7.232;2023-02-24T14:56:50;51915.06;;;-142.34;30.37
12951;BME280;6540;50.858;7.232;2023-02-24T15:01:55;51925.16;;;-142.34;30.55
12951;BME280;6540;50.858;7.232;2023-02-24T15:06:52;51947.34;;;-142.34;30.15
12951;BME280;6540;50.858;7.232;2023-02-24T15:09:21;51909.00;;;-142.34;30.63
12951;BME280;6540;50.858;7.232;2023-02-24T15:11:48;51915.06;;;-142.34;30.70
12951;BME280;6540;50.858;7.232;2023-02-24T15:14:28;51923.13;;;-142.34;30.65